Identifier: KMEV

AWOS Phone: 775-782-6264

AWOS Radio Freq: 119.325

Latitude: 39.00000000

Longitude: -119.75190000

Current Conditions

Updated: 12:57 AM GMT on 23 Jan 2019

  • Wind Speed (2min):
    3 Knots
  • Wind Direction (2min):
    250 Degrees
  • Temperature (10min):
    1 Celsius
  • Dew Point (10min):
    -5 Celsius
  • Humidity:
    64 Percent
  • Altimeter:
    30.44 inHG
  • Density Altitude:
  • Visibility:
    10 Miles
  • Clouds:
    CLR
  • Rainfall Current Hour:
    0 Inches
METAR: METAR KMEV 230055Z AUTO 26003KT 10SM CLR 01/M05 A3043 RMK AO2